Pacific Hope — 3FLH6 — position and weather

sailwx.info

Track history (hours):
 
Tides and Currents Weather Stations Pressure Air Temp Water Temp Dewpoint Dewpoint Depression Visibility Wind Speed Wind Dir Waves Ship Positions

Pacific Hope

Last reported at 2016-Aug-19 17:32 UTC. Time now 2016-Aug-26 13:46 UTC.
Position N 34°47' E 140°05'.

Length 169 m; draft 8.8 m.

Type: Cargo ship. MMSI: 351849000.

Date/timePositionNaut miles runAvg speedWind from/ knotsBaromVisibWave heightAir tempDewpointWater temp
2016-Aug-19 17:32N 34°47' E 140°05'1212.0
2016-Aug-19 16:33N 34°55' E 140°16'1211.6
2016-Aug-19 15:33N 35°03' E 140°27'1111.1
2016-Aug-19 14:32N 35°11' E 140°37'1010.1
2016-Aug-19 13:33N 35°19' E 140°42'1110.8
2016-Aug-19 12:30N 35°28' E 140°51'27 7.9
2016-Aug-19 09:07N 35°55' E 140°50'611.0
2016-Aug-19 08:33N 35°59' E 140°44'5 3.1
2016-Aug-19 07:04N 35°55' E 140°40'0 0.0
2016-Aug-19 02:25N 35°55' E 140°40'0 0.0
2016-Aug-19 00:04N 35°55' E 140°40'0 0.0
2016-Aug-18 23:16N 35°55' E 140°40'0 0.0
2016-Aug-18 22:22N 35°55' E 140°40'0 0.0
2016-Aug-18 21:25N 35°55' E 140°40'0 0.0
2016-Aug-18 20:28N 35°55' E 140°40'0 0.0
2016-Aug-18 19:16N 35°55' E 140°40'0 0.0
2016-Aug-18 17:22N 35°55' E 140°40'0 0.0
2016-Aug-18 16:28N 35°55' E 140°40'0 0.0
2016-Aug-18 13:10N 35°55' E 140°40'0 0.0
2016-Aug-18 12:28N 35°55' E 140°40'0 0.0
2016-Aug-18 10:28N 35°55' E 140°40'0 0.0
2016-Aug-18 09:22N 35°55' E 140°40'0 0.0
2016-Aug-18 08:16N 35°55' E 140°40'0 0.0
2016-Aug-18 07:25N 35°55' E 140°40'0 0.0
2016-Aug-18 03:10N 35°55' E 140°40'0 0.0
2016-Aug-18 02:22N 35°55' E 140°40'0 0.0
2016-Aug-17 20:28N 35°55' E 140°40'0 0.0
2016-Aug-17 18:04N 35°55' E 140°40'0 0.0
2016-Aug-17 00:04N 35°55' E 140°40'0 0.0
2016-Aug-16 23:31N 35°55' E 140°40'0 0.0
2016-Aug-16 22:19N 35°55' E 140°40'0 0.0
2016-Aug-16 13:07N 35°55' E 140°40'0 0.0
2016-Aug-15 19:22N 35°55' E 140°40'0 0.0
2016-Aug-15 18:25N 35°55' E 140°40'0 0.0
2016-Aug-15 17:31N 35°55' E 140°40'0 0.0
2016-Aug-15 16:31N 35°55' E 140°40'0 0.0
2016-Aug-15 13:13N 35°55' E 140°40'0 0.0
2016-Aug-14 21:19N 35°55' E 140°40'0 0.0
2016-Aug-14 20:31N 35°55' E 140°40'0 0.0
2016-Aug-14 19:31N 35°55' E 140°40'0 0.0
2016-Aug-14 18:31N 35°55' E 140°40'0 0.0
2016-Aug-14 17:31N 35°55' E 140°40'0 0.0
2016-Aug-14 15:25N 35°55' E 140°40'0 0.0
2016-Aug-14 14:31N 35°55' E 140°40'0 0.0
2016-Aug-14 01:10N 35°55' E 140°40'0 0.0
2016-Aug-13 22:28N 35°55' E 140°40'0 0.0
2016-Aug-13 20:22N 35°55' E 140°40'0 0.0
2016-Aug-13 15:28N 35°55' E 140°40'0 0.0
2016-Aug-13 13:28N 35°55' E 140°40'0 0.0
2016-Aug-13 08:04N 35°55' E 140°40'0 0.0
2016-Aug-12 20:10N 35°55' E 140°40'0 0.0
2016-Aug-12 18:28N 35°55' E 140°40'0 0.0
2016-Aug-12 17:10N 35°55' E 140°40'0 0.0
2016-Aug-12 15:16N 35°55' E 140°40'0 0.0
2016-Aug-12 14:10N 35°55' E 140°40'0 0.0
2016-Aug-12 10:10N 35°55' E 140°40'1 0.1
2016-Aug-12 01:33N 35°55' E 140°41'7 6.9
2016-Aug-12 00:33N 36°01' E 140°46'0 0.3
2016-Aug-11 23:26N 36°01' E 140°46'0 0.0
2016-Aug-11 22:32N 36°01' E 140°46'0 0.0
2016-Aug-11 21:32N 36°01' E 140°46'0 0.0
2016-Aug-11 20:23N 36°01' E 140°46'0 0.0
2016-Aug-11 19:32N 36°01' E 140°46'0 0.0
2016-Aug-11 18:23N 36°01' E 140°46'0 0.1
2016-Aug-11 17:32N 36°01' E 140°46'0 0.0
2016-Aug-11 16:14N 36°01' E 140°46'0 0.0
2016-Aug-11 15:23N 36°01' E 140°46'0 0.1
2016-Aug-11 14:32N 36°02' E 140°46'5 4.8
2016-Aug-11 13:33N 35°59' E 140°51'1110.5
2016-Aug-11 12:28N 35°52' E 141°02'1512.3
2016-Aug-11 11:16N 35°37' E 140°59'1013.0
2016-Aug-11 10:32N 35°29' E 140°52'1313.0
2016-Aug-11 09:32N 35°19' E 140°42'1313.2
2016-Aug-11 08:33N 35°09' E 140°32'1312.9
2016-Aug-11 07:31N 34°59' E 140°21'1313.1
2016-Aug-11 06:33N 34°50' E 140°11'1414.0
2016-Aug-11 05:33N 34°40' E 139°58'4413.6
2016-Aug-11 02:18N 34°09' E 139°20'1113.2
2016-Aug-11 01:28N 34°01' E 139°11'  
Track history (hours):
 
Tides and Currents Weather Stations Pressure Air Temp Water Temp Dewpoint Dewpoint Depression Visibility Wind Speed Wind Dir Waves Ship Positions

Pacific Hope

Last reported at 2016-Aug-19 17:32 UTC. Time now 2016-Aug-26 13:46 UTC.
Position N 34°47' E 140°05'.

Length 169 m; draft 8.8 m.

Type: Cargo ship. MMSI: 351849000.

Date/timePositionNaut miles runAvg speedWind from/ knotsBaromVisibWave heightAir tempDewpointWater temp
2016-Aug-19 17:32N 34°47' E 140°05'1212.0
2016-Aug-19 16:33N 34°55' E 140°16'1211.6
2016-Aug-19 15:33N 35°03' E 140°27'1111.1
2016-Aug-19 14:32N 35°11' E 140°37'1010.1
2016-Aug-19 13:33N 35°19' E 140°42'1110.8
2016-Aug-19 12:30N 35°28' E 140°51'27 7.9
2016-Aug-19 09:07N 35°55' E 140°50'611.0
2016-Aug-19 08:33N 35°59' E 140°44'5 3.1
2016-Aug-19 07:04N 35°55' E 140°40'0 0.0
2016-Aug-19 02:25N 35°55' E 140°40'0 0.0
2016-Aug-19 00:04N 35°55' E 140°40'0 0.0
2016-Aug-18 23:16N 35°55' E 140°40'0 0.0
2016-Aug-18 22:22N 35°55' E 140°40'0 0.0
2016-Aug-18 21:25N 35°55' E 140°40'0 0.0
2016-Aug-18 20:28N 35°55' E 140°40'0 0.0
2016-Aug-18 19:16N 35°55' E 140°40'0 0.0
2016-Aug-18 17:22N 35°55' E 140°40'0 0.0
2016-Aug-18 16:28N 35°55' E 140°40'0 0.0
2016-Aug-18 13:10N 35°55' E 140°40'0 0.0
2016-Aug-18 12:28N 35°55' E 140°40'0 0.0
2016-Aug-18 10:28N 35°55' E 140°40'0 0.0
2016-Aug-18 09:22N 35°55' E 140°40'0 0.0
2016-Aug-18 08:16N 35°55' E 140°40'0 0.0
2016-Aug-18 07:25N 35°55' E 140°40'0 0.0
2016-Aug-18 03:10N 35°55' E 140°40'0 0.0
2016-Aug-18 02:22N 35°55' E 140°40'0 0.0
2016-Aug-17 20:28N 35°55' E 140°40'0 0.0
2016-Aug-17 18:04N 35°55' E 140°40'0 0.0
2016-Aug-17 00:04N 35°55' E 140°40'0 0.0
2016-Aug-16 23:31N 35°55' E 140°40'0 0.0
2016-Aug-16 22:19N 35°55' E 140°40'0 0.0
2016-Aug-16 13:07N 35°55' E 140°40'0 0.0
2016-Aug-15 19:22N 35°55' E 140°40'0 0.0
2016-Aug-15 18:25N 35°55' E 140°40'0 0.0
2016-Aug-15 17:31N 35°55' E 140°40'0 0.0
2016-Aug-15 16:31N 35°55' E 140°40'0 0.0
2016-Aug-15 13:13N 35°55' E 140°40'0 0.0
2016-Aug-14 21:19N 35°55' E 140°40'0 0.0
2016-Aug-14 20:31N 35°55' E 140°40'0 0.0
2016-Aug-14 19:31N 35°55' E 140°40'0 0.0
2016-Aug-14 18:31N 35°55' E 140°40'0 0.0
2016-Aug-14 17:31N 35°55' E 140°40'0 0.0
2016-Aug-14 15:25N 35°55' E 140°40'0 0.0
2016-Aug-14 14:31N 35°55' E 140°40'0 0.0
2016-Aug-14 01:10N 35°55' E 140°40'0 0.0
2016-Aug-13 22:28N 35°55' E 140°40'0 0.0
2016-Aug-13 20:22N 35°55' E 140°40'0 0.0
2016-Aug-13 15:28N 35°55' E 140°40'0 0.0
2016-Aug-13 13:28N 35°55' E 140°40'0 0.0
2016-Aug-13 08:04N 35°55' E 140°40'0 0.0
2016-Aug-12 20:10N 35°55' E 140°40'0 0.0
2016-Aug-12 18:28N 35°55' E 140°40'0 0.0
2016-Aug-12 17:10N 35°55' E 140°40'0 0.0
2016-Aug-12 15:16N 35°55' E 140°40'0 0.0
2016-Aug-12 14:10N 35°55' E 140°40'0 0.0
2016-Aug-12 10:10N 35°55' E 140°40'1 0.1
2016-Aug-12 01:33N 35°55' E 140°41'7 6.9
2016-Aug-12 00:33N 36°01' E 140°46'0 0.3
2016-Aug-11 23:26N 36°01' E 140°46'0 0.0
2016-Aug-11 22:32N 36°01' E 140°46'0 0.0
2016-Aug-11 21:32N 36°01' E 140°46'0 0.0
2016-Aug-11 20:23N 36°01' E 140°46'0 0.0
2016-Aug-11 19:32N 36°01' E 140°46'0 0.0
2016-Aug-11 18:23N 36°01' E 140°46'0 0.1
2016-Aug-11 17:32N 36°01' E 140°46'0 0.0
2016-Aug-11 16:14N 36°01' E 140°46'0 0.0
2016-Aug-11 15:23N 36°01' E 140°46'0 0.1
2016-Aug-11 14:32N 36°02' E 140°46'5 4.8
2016-Aug-11 13:33N 35°59' E 140°51'1110.5
2016-Aug-11 12:28N 35°52' E 141°02'1512.3
2016-Aug-11 11:16N 35°37' E 140°59'1013.0
2016-Aug-11 10:32N 35°29' E 140°52'1313.0
2016-Aug-11 09:32N 35°19' E 140°42'1313.2
2016-Aug-11 08:33N 35°09' E 140°32'1312.9
2016-Aug-11 07:31N 34°59' E 140°21'1313.1
2016-Aug-11 06:33N 34°50' E 140°11'1414.0
2016-Aug-11 05:33N 34°40' E 139°58'4413.6
2016-Aug-11 02:18N 34°09' E 139°20'1113.2
2016-Aug-11 01:28N 34°01' E 139°11'  

Dump ship's entire track history